Time;durP1;ratioP1;P1;durP2;ratioP2;P2;SDS_P1;SDS_P2;PMS_P1;PMS_P2;Temp;Humidity;BMP_temperature;BMP_pressure;BME280_temperature;BME280_humidity;BME280_pressure;Samples;Min_cycle;Max_cycle;Signal;HPM_P1;HPM_P2
2023/07/24 00:00:20;;;;;;;6.90;4.80;;;;;;;;;;107983;1261;175455;-36
2023/07/24 00:03:15;;;;;;;6.70;4.80;;;;;;;;;;108150;1259;42515;-36
2023/07/24 00:05:49;;;;;;;6.70;4.90;;;;;;;;;;108083;1271;41445;-36
2023/07/24 00:08:23;;;;;;;6.70;4.90;;;;;;;;;;108301;1272;42164;-36
2023/07/24 00:10:58;;;;;;;6.20;4.70;;;;;;;;;;108249;1272;41016;-36
2023/07/24 00:13:33;;;;;;;7.00;5.10;;;;;;;;;;108264;1261;39870;-36
2023/07/24 00:16:13;;;;;;;6.70;4.90;;;;;;;;;;108221;1257;40232;-36
2023/07/24 00:18:48;;;;;;;7.30;5.10;;;;;;;;;;108296;1268;43158;-36
2023/07/24 00:21:22;;;;;;;7.10;5.00;;;;;;;;;;108284;1269;41252;-36
2023/07/24 00:23:59;;;;;;;6.20;4.90;;;;;;;;;;108328;1257;38600;-36
2023/07/24 00:26:32;;;;;;;6.20;4.90;;;;;;;;;;108273;1261;40321;-36
2023/07/24 00:29:07;;;;;;;6.70;5.00;;;;;;;;;;103773;1264;3010974;-36
2023/07/24 00:31:41;;;;;;;7.50;5.30;;;;;;;;;;108264;1272;23122;-36
2023/07/24 00:34:15;;;;;;;6.30;4.90;;;;;;;;;;108258;1261;41138;-36
2023/07/24 00:36:52;;;;;;;6.20;4.90;;;;;;;;;;108224;1257;38761;-36
2023/07/24 00:39:29;;;;;;;6.50;5.00;;;;;;;;;;108189;1269;175524;-36
2023/07/24 00:42:04;;;;;;;6.50;5.20;;;;;;;;;;108335;1262;42067;-34
2023/07/24 00:44:38;;;;;;;6.40;4.90;;;;;;;;;;108287;1272;41097;-34
2023/07/24 00:47:13;;;;;;;6.30;5.10;;;;;;;;;;108275;1259;38718;-34
2023/07/24 00:49:48;;;;;;;6.70;5.30;;;;;;;;;;108267;1262;40251;-34
2023/07/24 00:52:22;;;;;;;6.30;5.00;;;;;;;;;;108278;1271;42068;-34
2023/07/24 00:54:57;;;;;;;6.70;5.10;;;;;;;;;;108279;1264;41207;-34
2023/07/24 00:57:32;;;;;;;6.70;4.90;;;;;;;;;;108213;1272;38796;-34
2023/07/24 01:00:08;;;;;;;6.40;4.90;;;;;;;;;;108292;1272;40134;-34
2023/07/24 01:02:42;;;;;;;7.00;5.30;;;;;;;;;;108274;1267;42374;-34
2023/07/24 01:05:17;;;;;;;7.70;5.20;;;;;;;;;;108262;1269;41260;-34
2023/07/24 01:07:52;;;;;;;6.70;5.50;;;;;;;;;;108225;1262;38848;-34
2023/07/24 01:10:26;;;;;;;7.10;5.20;;;;;;;;;;108282;1271;41660;-34
2023/07/24 01:13:08;;;;;;;6.90;5.10;;;;;;;;;;108309;1272;43338;-34
2023/07/24 01:15:49;;;;;;;6.60;5.50;;;;;;;;;;108247;1260;41273;-34
2023/07/24 01:18:27;;;;;;;7.00;5.40;;;;;;;;;;108204;1264;38819;-34
2023/07/24 01:21:04;;;;;;;7.60;5.70;;;;;;;;;;108280;1269;40395;-34
2023/07/24 01:23:59;;;;;;;7.00;5.30;;;;;;;;;;108297;1272;42038;-34
2023/07/24 01:26:34;;;;;;;6.80;5.30;;;;;;;;;;108213;1269;41441;-34
2023/07/24 01:29:09;;;;;;;6.50;5.10;;;;;;;;;;108217;1261;38869;-34
2023/07/24 01:31:43;;;;;;;7.40;5.70;;;;;;;;;;108285;1261;40194;-34
2023/07/24 01:34:17;;;;;;;7.20;5.50;;;;;;;;;;108275;1261;42461;-34
2023/07/24 01:36:53;;;;;;;7.20;5.70;;;;;;;;;;108289;1257;41373;-35
2023/07/24 01:39:27;;;;;;;7.80;5.50;;;;;;;;;;108267;1260;38998;-35
2023/07/24 01:42:05;;;;;;;6.70;5.30;;;;;;;;;;108298;1262;40183;-35
2023/07/24 01:44:39;;;;;;;6.90;5.40;;;;;;;;;;108264;1269;43408;-36
2023/07/24 01:47:13;;;;;;;6.50;5.00;;;;;;;;;;108290;1257;42366;-36
2023/07/24 01:49:48;;;;;;;7.70;5.10;;;;;;;;;;108231;1256;40047;-36
2023/07/24 01:52:22;;;;;;;6.30;5.10;;;;;;;;;;108255;1270;41409;-36
2023/07/24 01:54:57;;;;;;;7.00;5.40;;;;;;;;;;108277;1270;42241;-36
2023/07/24 01:57:31;;;;;;;7.70;5.30;;;;;;;;;;108269;1262;41628;-36
2023/07/24 02:00:07;;;;;;;6.40;4.80;;;;;;;;;;108280;1263;38820;-36
2023/07/24 02:02:41;;;;;;;6.70;4.70;;;;;;;;;;108283;1260;40175;-36
2023/07/24 02:05:15;;;;;;;6.60;4.80;;;;;;;;;;108309;1263;42084;-36
2023/07/24 02:07:49;;;;;;;7.20;4.90;;;;;;;;;;108319;1262;41178;-36
2023/07/24 02:10:24;;;;;;;5.90;4.70;;;;;;;;;;108222;1262;44960;-36
2023/07/24 02:12:58;;;;;;;6.10;4.50;;;;;;;;;;108234;1268;40484;-36
2023/07/24 02:15:33;;;;;;;6.20;4.80;;;;;;;;;;108203;1257;175549;-36
2023/07/24 02:18:08;;;;;;;7.00;4.60;;;;;;;;;;108252;1256;41159;-36
2023/07/24 02:20:42;;;;;;;7.10;4.70;;;;;;;;;;108243;1262;44513;-36
2023/07/24 02:23:17;;;;;;;6.40;4.50;;;;;;;;;;108316;1261;41323;-36
2023/07/24 02:25:54;;;;;;;6.00;4.50;;;;;;;;;;108304;1272;42625;-36
2023/07/24 02:28:28;;;;;;;6.60;4.70;;;;;;;;;;108314;1269;42158;-36
2023/07/24 02:31:03;;;;;;;6.40;4.80;;;;;;;;;;108221;1270;44527;-36
2023/07/24 02:33:38;;;;;;;6.60;4.60;;;;;;;;;;108282;1269;40120;-36
2023/07/24 02:36:13;;;;;;;6.60;4.60;;;;;;;;;;108240;1266;42274;-36
2023/07/24 02:38:47;;;;;;;6.20;4.20;;;;;;;;;;108280;1271;41182;-37
2023/07/24 02:41:22;;;;;;;5.90;4.20;;;;;;;;;;108242;1260;45903;-36
2023/07/24 02:43:56;;;;;;;6.30;4.20;;;;;;;;;;108278;1268;40320;-36
2023/07/24 02:46:30;;;;;;;6.30;4.20;;;;;;;;;;108242;1268;42304;-36
2023/07/24 02:49:05;;;;;;;6.00;4.30;;;;;;;;;;108258;1272;41319;-36
2023/07/24 02:51:40;;;;;;;5.80;3.80;;;;;;;;;;108180;1261;45167;-36
2023/07/24 02:54:14;;;;;;;6.10;4.10;;;;;;;;;;108087;1259;40550;-36
2023/07/24 02:56:48;;;;;;;6.10;4.10;;;;;;;;;;108072;1270;42002;-36
2023/07/24 02:59:22;;;;;;;5.80;3.70;;;;;;;;;;108117;1262;41103;-36
2023/07/24 03:01:56;;;;;;;6.50;3.90;;;;;;;;;;108155;1263;175201;-36
2023/07/24 03:04:31;;;;;;;5.30;3.70;;;;;;;;;;108298;1261;41712;-36
2023/07/24 03:07:06;;;;;;;6.00;4.00;;;;;;;;;;108291;1257;44853;-36
2023/07/24 03:09:40;;;;;;;5.50;3.90;;;;;;;;;;108283;1273;41586;-36
2023/07/24 03:12:14;;;;;;;5.90;4.00;;;;;;;;;;108209;1262;46001;-36
2023/07/24 03:14:48;;;;;;;6.20;4.00;;;;;;;;;;108264;1272;40338;-36
2023/07/24 03:17:23;;;;;;;5.90;3.80;;;;;;;;;;108273;1268;43261;-36
2023/07/24 03:19:58;;;;;;;5.70;3.90;;;;;;;;;;108292;1261;41056;-36
2023/07/24 03:22:32;;;;;;;5.20;3.50;;;;;;;;;;108050;1273;45734;-36
2023/07/24 03:25:09;;;;;;;5.90;3.90;;;;;;;;;;108113;1261;40183;-36
2023/07/24 03:27:43;;;;;;;5.70;4.00;;;;;;;;;;108106;1259;42216;-36
2023/07/24 03:30:18;;;;;;;6.00;3.80;;;;;;;;;;108124;1261;41193;-36
2023/07/24 03:32:52;;;;;;;5.90;4.00;;;;;;;;;;108186;1260;44555;-36
2023/07/24 03:35:27;;;;;;;5.60;3.90;;;;;;;;;;108253;1268;40133;-36
2023/07/24 03:38:01;;;;;;;6.40;4.10;;;;;;;;;;108252;1271;42358;-36
2023/07/24 03:40:35;;;;;;;6.00;3.80;;;;;;;;;;108218;1262;42496;-36
2023/07/24 03:43:09;;;;;;;5.50;3.90;;;;;;;;;;108276;1262;45170;-36
2023/07/24 03:45:44;;;;;;;6.10;3.70;;;;;;;;;;108312;1273;40295;-36
2023/07/24 03:48:19;;;;;;;6.20;3.70;;;;;;;;;;108330;1269;42133;-36
2023/07/24 03:51:00;;;;;;;6.40;3.70;;;;;;;;;;108282;1263;41148;-36
2023/07/24 03:53:34;;;;;;;5.40;3.70;;;;;;;;;;108222;1262;46774;-36
2023/07/24 03:56:10;;;;;;;5.60;3.70;;;;;;;;;;108087;1259;41465;-36
2023/07/24 03:58:44;;;;;;;5.80;3.70;;;;;;;;;;108089;1273;42043;-36
2023/07/24 04:01:18;;;;;;;5.70;3.80;;;;;;;;;;108100;1271;42362;-36
2023/07/24 04:03:53;;;;;;;5.60;3.70;;;;;;;;;;108182;1258;46622;-36
2023/07/24 04:06:27;;;;;;;5.80;3.90;;;;;;;;;;108237;1262;41618;-36
2023/07/24 04:09:04;;;;;;;5.80;3.70;;;;;;;;;;108242;1270;42004;-36
2023/07/24 04:11:39;;;;;;;5.80;4.00;;;;;;;;;;108275;1263;41194;-36
2023/07/24 04:14:13;;;;;;;5.60;3.50;;;;;;;;;;108266;1263;44959;-36
2023/07/24 04:16:47;;;;;;;5.30;3.50;;;;;;;;;;108308;1271;40108;-36
2023/07/24 04:19:20;;;;;;;9.60;3.70;;;;;;;;;;108290;1261;42896;-36
2023/07/24 04:21:54;;;;;;;5.60;3.60;;;;;;;;;;108293;1269;41456;-36
2023/07/24 04:24:30;;;;;;;5.50;3.80;;;;;;;;;;108072;1257;44373;-36
2023/07/24 04:27:05;;;;;;;5.70;3.30;;;;;;;;;;108091;1275;41240;-36
2023/07/24 04:29:39;;;;;;;5.60;3.40;;;;;;;;;;108102;1269;42239;-36
2023/07/24 04:32:15;;;;;;;6.20;3.70;;;;;;;;;;108120;1257;42643;-36
2023/07/24 04:34:48;;;;;;;6.20;3.30;;;;;;;;;;108258;1261;45991;-36
2023/07/24 04:37:23;;;;;;;6.00;3.60;;;;;;;;;;108293;1258;40311;-36
2023/07/24 04:39:57;;;;;;;6.20;3.50;;;;;;;;;;108299;1262;42418;-36
2023/07/24 04:42:31;;;;;;;5.60;3.60;;;;;;;;;;108301;1272;41140;-36
2023/07/24 04:45:06;;;;;;;5.20;3.40;;;;;;;;;;108072;1261;45728;-36
2023/07/24 04:47:40;;;;;;;5.00;3.20;;;;;;;;;;108086;1259;40180;-36
2023/07/24 04:50:14;;;;;;;6.00;3.50;;;;;;;;;;108094;1269;42303;-36
2023/07/24 04:52:48;;;;;;;5.80;3.50;;;;;;;;;;108108;1270;41334;-36
2023/07/24 04:55:28;;;;;;;5.50;3.50;;;;;;;;;;108218;1262;45761;-36
2023/07/24 04:58:02;;;;;;;5.80;3.60;;;;;;;;;;108287;1262;40398;-36
2023/07/24 05:00:36;;;;;;;6.00;3.40;;;;;;;;;;108312;1272;42415;-36
2023/07/24 05:03:12;;;;;;;5.50;3.50;;;;;;;;;;108241;1268;41355;-36
2023/07/24 05:05:48;;;;;;;5.30;3.40;;;;;;;;;;108297;1260;45250;-36
2023/07/24 05:08:23;;;;;;;5.20;3.30;;;;;;;;;;108283;1273;39927;-36
2023/07/24 05:11:01;;;;;;;5.40;3.30;;;;;;;;;;108316;1269;42382;-36
2023/07/24 05:13:35;;;;;;;5.80;3.40;;;;;;;;;;108266;1263;41284;-36
2023/07/24 05:16:12;;;;;;;5.30;3.10;;;;;;;;;;108258;1260;38947;-37
2023/07/24 05:18:46;;;;;;;5.50;3.30;;;;;;;;;;108289;1258;40410;-36
2023/07/24 05:21:20;;;;;;;6.30;3.30;;;;;;;;;;108258;1268;42589;-36
2023/07/24 05:23:54;;;;;;;5.20;3.20;;;;;;;;;;108240;1260;41388;-36
2023/07/24 05:26:28;;;;;;;5.90;3.30;;;;;;;;;;108264;1262;44142;-36
2023/07/24 05:29:05;;;;;;;5.90;3.40;;;;;;;;;;108284;1269;40527;-36
2023/07/24 05:31:39;;;;;;;5.30;3.00;;;;;;;;;;108270;1268;43380;-34
2023/07/24 05:34:14;;;;;;;5.40;3.30;;;;;;;;;;108227;1268;41283;-35
2023/07/24 05:36:48;;;;;;;5.20;3.20;;;;;;;;;;108294;1260;46034;-35
2023/07/24 05:39:22;;;;;;;5.40;3.40;;;;;;;;;;108189;1263;40307;-35
2023/07/24 05:41:56;;;;;;;6.70;3.10;;;;;;;;;;108312;1273;42369;-36
2023/07/24 05:44:35;;;;;;;5.40;3.10;;;;;;;;;;108252;1263;41136;-36
2023/07/24 05:47:10;;;;;;;5.10;2.90;;;;;;;;;;108273;1268;45331;-36
2023/07/24 05:49:43;;;;;;;5.30;3.20;;;;;;;;;;108266;1261;40199;-36
2023/07/24 05:52:18;;;;;;;5.20;3.20;;;;;;;;;;108290;1259;43389;-36
2023/07/24 05:54:52;;;;;;;5.00;3.00;;;;;;;;;;108220;1270;41152;-36
2023/07/24 05:57:26;;;;;;;6.00;3.20;;;;;;;;;;108244;1272;46206;-36
2023/07/24 06:00:00;;;;;;;5.10;3.30;;;;;;;;;;108246;1272;41465;-34
2023/07/24 06:02:35;;;;;;;5.80;3.10;;;;;;;;;;108272;1257;42221;-34
2023/07/24 06:05:10;;;;;;;5.90;3.00;;;;;;;;;;108311;1259;41106;-34
2023/07/24 06:07:46;;;;;;;5.50;3.10;;;;;;;;;;108265;1257;46328;-34
2023/07/24 06:10:20;;;;;;;5.80;3.00;;;;;;;;;;108281;1257;40262;-34
2023/07/24 06:12:54;;;;;;;5.00;3.00;;;;;;;;;;108272;1270;42336;-34
2023/07/24 06:15:28;;;;;;;5.30;2.90;;;;;;;;;;108260;1272;43944;-34
2023/07/24 06:18:02;;;;;;;4.70;2.90;;;;;;;;;;108250;1269;47101;-34
2023/07/24 06:20:36;;;;;;;5.30;2.90;;;;;;;;;;108266;1262;41319;-35
2023/07/24 06:23:10;;;;;;;5.40;3.00;;;;;;;;;;108280;1271;42094;-35
2023/07/24 06:25:43;;;;;;;5.40;3.20;;;;;;;;;;108256;1259;42424;-35
2023/07/24 06:28:17;;;;;;;5.30;2.80;;;;;;;;;;108292;1263;46246;-35
2023/07/24 06:30:50;;;;;;;4.90;3.00;;;;;;;;;;108280;1257;41555;-35
2023/07/24 06:33:24;;;;;;;4.70;2.70;;;;;;;;;;108286;1257;42278;-36
2023/07/24 06:35:58;;;;;;;5.50;3.20;;;;;;;;;;108285;1262;41387;-36
2023/07/24 06:38:32;;;;;;;4.90;2.90;;;;;;;;;;108230;1272;46262;-36
2023/07/24 06:41:05;;;;;;;5.20;3.00;;;;;;;;;;108297;1270;40179;-36
2023/07/24 06:43:39;;;;;;;5.00;3.00;;;;;;;;;;108225;1270;42229;-36
2023/07/24 06:46:13;;;;;;;5.40;3.10;;;;;;;;;;108242;1267;41330;-36
2023/07/24 06:48:47;;;;;;;6.20;3.40;;;;;;;;;;108238;1273;46150;-36
2023/07/24 06:51:21;;;;;;;6.00;3.30;;;;;;;;;;108302;1272;40568;-36
2023/07/24 06:53:54;;;;;;;5.20;3.10;;;;;;;;;;108269;1273;42471;-36
2023/07/24 06:56:28;;;;;;;6.30;3.40;;;;;;;;;;108254;1257;42587;-36
2023/07/24 06:59:02;;;;;;;6.50;3.40;;;;;;;;;;108262;1272;46932;-36
2023/07/24 07:01:36;;;;;;;6.70;3.80;;;;;;;;;;108235;1273;40260;-36
2023/07/24 07:04:10;;;;;;;7.80;4.10;;;;;;;;;;108265;1258;42471;-36
2023/07/24 07:06:44;;;;;;;6.50;3.60;;;;;;;;;;108241;1262;41333;-36
2023/07/24 07:09:19;;;;;;;7.00;3.50;;;;;;;;;;108312;1267;44974;-36
2023/07/24 07:11:53;;;;;;;6.60;3.60;;;;;;;;;;107978;1271;175527;-36
2023/07/24 07:14:28;;;;;;;5.60;3.30;;;;;;;;;;108276;1270;42591;-36
2023/07/24 07:17:03;;;;;;;5.90;3.40;;;;;;;;;;108256;1259;41239;-36
2023/07/24 07:19:40;;;;;;;5.50;3.20;;;;;;;;;;108234;1264;44888;-36
2023/07/24 07:22:14;;;;;;;5.30;3.20;;;;;;;;;;108282;1267;40391;-36
2023/07/24 07:24:48;;;;;;;6.30;3.30;;;;;;;;;;108275;1272;42080;-36
2023/07/24 07:27:23;;;;;;;6.10;3.10;;;;;;;;;;108257;1258;42241;-36
2023/07/24 07:30:00;;;;;;;6.70;3.30;;;;;;;;;;108275;1258;45211;-36
2023/07/24 07:32:37;;;;;;;6.30;3.10;;;;;;;;;;108282;1270;41284;-36
2023/07/24 07:35:15;;;;;;;7.80;3.20;;;;;;;;;;108306;1270;42385;-34
2023/07/24 07:37:50;;;;;;;6.10;3.30;;;;;;;;;;108273;1257;41269;-35
2023/07/24 07:40:26;;;;;;;6.00;3.00;;;;;;;;;;108206;1261;38813;-32
2023/07/24 07:43:01;;;;;;;6.40;2.80;;;;;;;;;;108238;1260;40432;-33
2023/07/24 07:45:35;;;;;;;5.30;2.80;;;;;;;;;;108227;1273;43226;-33
2023/07/24 07:48:11;;;;;;;4.80;2.60;;;;;;;;;;108134;1259;41287;-33
2023/07/24 07:50:45;;;;;;;5.30;2.90;;;;;;;;;;108252;1257;38633;-34
2023/07/24 07:53:19;;;;;;;5.50;2.80;;;;;;;;;;108299;1273;39952;-33
2023/07/24 07:56:01;;;;;;;5.40;2.90;;;;;;;;;;108318;1272;43367;-33
2023/07/24 07:58:35;;;;;;;5.40;2.70;;;;;;;;;;108237;1257;41334;-33
2023/07/24 08:01:09;;;;;;;4.60;2.70;;;;;;;;;;108305;1260;40175;-34
2023/07/24 08:03:43;;;;;;;4.80;2.60;;;;;;;;;;108276;1267;40207;-34
2023/07/24 08:06:17;;;;;;;5.10;2.70;;;;;;;;;;108244;1257;42103;-35
2023/07/24 08:08:51;;;;;;;4.50;2.40;;;;;;;;;;108216;1257;42360;-35
2023/07/24 08:11:25;;;;;;;6.20;2.70;;;;;;;;;;108205;1269;40213;-35
2023/07/24 08:13:59;;;;;;;4.70;2.50;;;;;;;;;;108105;1267;175560;-35
2023/07/24 08:16:33;;;;;;;5.60;2.70;;;;;;;;;;108265;1272;43408;-35
2023/07/24 08:19:08;;;;;;;5.20;2.80;;;;;;;;;;108155;1259;42411;-37
2023/07/24 08:21:42;;;;;;;5.80;2.70;;;;;;;;;;108271;1257;40132;-34
2023/07/24 08:24:16;;;;;;;5.20;2.80;;;;;;;;;;108270;1260;41746;-35
2023/07/24 08:26:50;;;;;;;5.20;2.80;;;;;;;;;;108234;1258;42088;-35
2023/07/24 08:29:25;;;;;;;5.70;2.80;;;;;;;;;;108244;1258;42402;-35
2023/07/24 08:31:59;;;;;;;5.30;2.80;;;;;;;;;;108273;1259;40112;-35
2023/07/24 08:34:34;;;;;;;5.30;2.70;;;;;;;;;;108245;1261;40205;-35
2023/07/24 08:37:09;;;;;;;5.90;2.70;;;;;;;;;;108249;1258;43307;-35
2023/07/24 08:39:43;;;;;;;5.30;2.60;;;;;;;;;;108191;1257;42340;-35
2023/07/24 08:42:20;;;;;;;5.70;3.00;;;;;;;;;;108211;1272;39008;-35
2023/07/24 08:44:56;;;;;;;5.00;2.60;;;;;;;;;;108109;1260;40220;-35
2023/07/24 08:47:32;;;;;;;4.80;2.50;;;;;;;;;;108212;1271;42429;-35
2023/07/24 08:50:09;;;;;;;5.40;2.80;;;;;;;;;;108188;1261;41206;-35
2023/07/24 08:52:46;;;;;;;6.70;2.80;;;;;;;;;;108334;1272;39062;-35
2023/07/24 08:55:22;;;;;;;5.30;2.70;;;;;;;;;;108280;1263;40379;-35
2023/07/24 08:57:56;;;;;;;5.20;2.70;;;;;;;;;;108284;1261;43290;-35
2023/07/24 09:00:34;;;;;;;5.70;2.50;;;;;;;;;;108205;1258;41323;-35
2023/07/24 09:03:09;;;;;;;5.90;2.90;;;;;;;;;;108187;1273;38642;-35
2023/07/24 09:05:43;;;;;;;6.90;2.90;;;;;;;;;;108208;1262;40395;-35
2023/07/24 09:08:17;;;;;;;4.90;2.50;;;;;;;;;;108201;1268;42572;-35
2023/07/24 09:10:55;;;;;;;6.80;3.00;;;;;;;;;;108247;1261;41135;-35
2023/07/24 09:13:30;;;;;;;5.50;2.80;;;;;;;;;;108233;1260;38865;-35
2023/07/24 09:16:05;;;;;;;5.20;2.90;;;;;;;;;;108264;1257;40305;-35
2023/07/24 09:18:46;;;;;;;6.30;2.80;;;;;;;;;;108227;1257;42207;-36
2023/07/24 09:21:33;;;;;;;5.20;2.60;;;;;;;;;;108204;1262;42624;-38
2023/07/24 09:24:16;;;;;;;5.30;2.80;;;;;;;;;;108185;1269;38790;-37
2023/07/24 09:26:54;;;;;;;5.40;2.70;;;;;;;;;;108212;1257;41353;-39
2023/07/24 09:29:36;;;;;;;4.70;2.60;;;;;;;;;;108225;1260;42102;-36
2023/07/24 09:32:21;;;;;;;5.20;2.80;;;;;;;;;;108165;1270;48085;-39
2023/07/24 09:34:56;;;;;;;5.00;2.70;;;;;;;;;;108219;1268;40499;-37
2023/07/24 09:37:34;;;;;;;4.70;2.30;;;;;;;;;;108241;1260;41636;-38
2023/07/24 09:40:12;;;;;;;5.50;2.80;;;;;;;;;;108248;1273;42296;-35
2023/07/24 09:42:46;;;;;;;4.60;2.60;;;;;;;;;;108374;1272;47849;-36
2023/07/24 09:45:40;;;;;;;4.80;2.60;;;;;;;;;;108250;1272;38891;-36
2023/07/24 09:48:20;;;;;;;5.30;2.40;;;;;;;;;;108180;1257;40339;-37
2023/07/24 09:51:00;;;;;;;5.20;2.70;;;;;;;;;;108118;1257;44349;-36
2023/07/24 09:53:44;;;;;;;4.80;2.40;;;;;;;;;;108155;1267;175130;-36
2023/07/24 09:56:19;;;;;;;4.90;2.50;;;;;;;;;;108321;1272;40105;-36
2023/07/24 09:59:06;;;;;;;4.50;2.30;;;;;;;;;;108219;1258;41442;-37
2023/07/24 10:01:42;;;;;;;5.00;2.50;;;;;;;;;;108255;1260;43721;-35
2023/07/24 10:04:19;;;;;;;4.50;2.30;;;;;;;;;;108229;1271;41185;-35
2023/07/24 10:06:54;;;;;;;4.90;2.90;;;;;;;;;;108228;1271;40841;-35
2023/07/24 10:09:29;;;;;;;4.90;2.30;;;;;;;;;;108220;1260;40328;-36
2023/07/24 10:12:05;;;;;;;4.80;2.60;;;;;;;;;;107526;1272;914476;-35
2023/07/24 10:14:40;;;;;;;4.50;2.40;;;;;;;;;;108325;1271;42397;-36
2023/07/24 10:17:13;;;;;;;4.50;2.30;;;;;;;;;;108251;1260;39009;-36
2023/07/24 10:19:49;;;;;;;4.30;2.40;;;;;;;;;;108149;1262;175388;-38
2023/07/24 10:22:24;;;;;;;4.70;2.30;;;;;;;;;;108194;1260;42270;-35
2023/07/24 10:25:00;;;;;;;6.20;2.40;;;;;;;;;;107452;1263;893624;-35
2023/07/24 10:27:36;;;;;;;4.60;2.40;;;;;;;;;;108231;1267;40011;-35
2023/07/24 10:30:15;;;;;;;5.50;2.40;;;;;;;;;;108190;1269;40346;-35
2023/07/24 10:33:13;;;;;;;5.10;2.50;;;;;;;;;;108134;1260;42391;-35
2023/07/24 10:35:50;;;;;;;5.50;2.30;;;;;;;;;;108287;1256;41675;-38
2023/07/24 10:38:37;;;;;;;5.80;2.40;;;;;;;;;;108276;1270;38832;-38
2023/07/24 10:41:14;;;;;;;4.60;2.40;;;;;;;;;;108310;1269;40427;-38
2023/07/24 10:43:51;;;;;;;4.40;2.10;;;;;;;;;;108180;1261;49130;-39
2023/07/24 10:46:35;;;;;;;4.30;2.20;;;;;;;;;;108178;1270;41672;-38
2023/07/24 10:49:10;;;;;;;5.40;2.30;;;;;;;;;;108075;1269;175439;-38
2023/07/24 10:51:44;;;;;;;5.10;2.10;;;;;;;;;;108119;1271;40389;-38
2023/07/24 10:54:23;;;;;;;4.30;2.40;;;;;;;;;;108244;1271;49763;-38
2023/07/24 10:57:03;;;;;;;4.60;2.20;;;;;;;;;;108141;1266;175443;-38
2023/07/24 10:59:43;;;;;;;5.00;2.40;;;;;;;;;;108280;1272;39074;-38
2023/07/24 11:02:16;;;;;;;4.30;2.20;;;;;;;;;;108248;1257;40388;-38
2023/07/24 11:04:50;;;;;;;4.60;2.20;;;;;;;;;;108259;1259;42138;-38
2023/07/24 11:07:24;;;;;;;4.50;2.20;;;;;;;;;;108272;1260;41629;-38
2023/07/24 11:09:57;;;;;;;4.10;2.10;;;;;;;;;;108239;1265;39259;-38
2023/07/24 11:12:32;;;;;;;4.90;2.60;;;;;;;;;;108207;1257;41536;-38
2023/07/24 11:15:07;;;;;;;4.50;2.30;;;;;;;;;;108171;1268;42284;-38
2023/07/24 11:17:42;;;;;;;4.50;2.30;;;;;;;;;;108220;1265;41408;-38
2023/07/24 11:20:18;;;;;;;4.80;2.50;;;;;;;;;;108172;1270;39169;-38
2023/07/24 11:22:52;;;;;;;5.10;2.20;;;;;;;;;;108213;1257;40408;-37
2023/07/24 11:25:26;;;;;;;4.90;2.40;;;;;;;;;;108180;1257;42295;-37
2023/07/24 11:28:00;;;;;;;4.80;2.60;;;;;;;;;;108222;1272;41593;-37
2023/07/24 11:30:35;;;;;;;4.80;2.20;;;;;;;;;;108152;1260;39318;-37
2023/07/24 11:33:12;;;;;;;5.20;2.40;;;;;;;;;;108172;1257;40248;-38
2023/07/24 11:35:49;;;;;;;4.60;2.40;;;;;;;;;;108290;1257;42118;-38
2023/07/24 11:38:23;;;;;;;4.30;2.50;;;;;;;;;;108272;1260;42815;-35
2023/07/24 11:40:58;;;;;;;5.50;2.80;;;;;;;;;;108270;1261;40070;-35
2023/07/24 11:43:32;;;;;;;5.40;3.00;;;;;;;;;;108213;1257;40646;-35
2023/07/24 11:46:05;;;;;;;5.60;2.70;;;;;;;;;;108163;1262;43627;-35
2023/07/24 11:48:45;;;;;;;5.40;3.00;;;;;;;;;;108051;1261;103115;-36
2023/07/24 11:51:19;;;;;;;5.90;3.00;;;;;;;;;;108177;1270;39969;-37
2023/07/24 11:53:53;;;;;;;5.80;3.10;;;;;;;;;;107537;1260;894526;-38
2023/07/24 11:56:27;;;;;;;5.80;3.20;;;;;;;;;;108170;1260;175451;-38
2023/07/24 11:59:11;;;;;;;5.60;3.00;;;;;;;;;;108299;1271;42505;-35
2023/07/24 12:01:48;;;;;;;5.30;3.10;;;;;;;;;;108312;1269;38843;-36
2023/07/24 12:04:22;;;;;;;5.70;3.20;;;;;;;;;;108303;1257;40465;-35
2023/07/24 12:06:56;;;;;;;5.30;2.90;;;;;;;;;;108155;1271;42405;-35
2023/07/24 12:09:34;;;;;;;6.30;3.10;;;;;;;;;;108167;1264;41200;-35
2023/07/24 12:12:16;;;;;;;5.30;2.90;;;;;;;;;;108156;1270;38987;-35
2023/07/24 12:14:50;;;;;;;4.90;2.70;;;;;;;;;;108179;1260;40201;-35
2023/07/24 12:17:25;;;;;;;6.00;2.90;;;;;;;;;;108250;1270;42383;-35
2023/07/24 12:19:59;;;;;;;6.00;3.00;;;;;;;;;;108267;1260;43530;-35
2023/07/24 12:22:33;;;;;;;5.00;3.10;;;;;;;;;;108291;1261;38828;-36
2023/07/24 12:25:09;;;;;;;5.20;3.00;;;;;;;;;;108134;1261;40546;-37
2023/07/24 12:27:42;;;;;;;5.40;2.90;;;;;;;;;;108241;1267;42558;-37
2023/07/24 12:30:17;;;;;;;5.60;3.10;;;;;;;;;;108231;1260;42454;-38
2023/07/24 12:32:50;;;;;;;5.30;3.00;;;;;;;;;;108231;1260;40175;-37
2023/07/24 12:35:24;;;;;;;5.20;2.90;;;;;;;;;;108191;1262;40273;-37
2023/07/24 12:37:58;;;;;;;5.40;3.00;;;;;;;;;;108292;1268;43817;-39
2023/07/24 12:40:32;;;;;;;5.80;3.50;;;;;;;;;;108236;1261;41065;-37
2023/07/24 12:43:06;;;;;;;6.80;3.60;;;;;;;;;;108253;1256;40049;-39
2023/07/24 12:45:40;;;;;;;6.70;3.90;;;;;;;;;;108236;1260;39922;-39
2023/07/24 12:48:14;;;;;;;6.20;3.90;;;;;;;;;;108236;1267;42405;-36
2023/07/24 12:50:48;;;;;;;7.40;4.30;;;;;;;;;;108247;1270;42412;-36
2023/07/24 12:53:22;;;;;;;6.30;4.60;;;;;;;;;;108255;1266;38938;-36
2023/07/24 12:56:06;;;;;;;6.50;4.00;;;;;;;;;;108179;1260;41468;-35
2023/07/24 12:58:39;;;;;;;5.50;4.00;;;;;;;;;;108084;1265;175141;-35
2023/07/24 13:01:13;;;;;;;6.00;4.00;;;;;;;;;;108200;1261;41395;-35
2023/07/24 13:03:47;;;;;;;6.10;4.10;;;;;;;;;;108346;1269;40129;-34
2023/07/24 13:06:21;;;;;;;5.30;3.60;;;;;;;;;;108258;1260;40405;-35
2023/07/24 13:08:54;;;;;;;6.10;3.70;;;;;;;;;;108320;1261;43904;-35
2023/07/24 13:11:31;;;;;;;5.60;4.00;;;;;;;;;;108266;1257;41701;-35
2023/07/24 13:14:06;;;;;;;5.60;3.50;;;;;;;;;;108124;1260;41126;-35
2023/07/24 13:16:40;;;;;;;5.80;3.90;;;;;;;;;;108226;1260;40447;-34
2023/07/24 13:19:14;;;;;;;6.00;3.60;;;;;;;;;;108243;1272;41891;-35
2023/07/24 13:21:52;;;;;;;5.90;3.80;;;;;;;;;;108176;1267;41331;-35
2023/07/24 13:24:26;;;;;;;6.10;3.60;;;;;;;;;;108273;1260;40086;-35
2023/07/24 13:26:59;;;;;;;6.10;3.60;;;;;;;;;;108198;1257;40552;-35
2023/07/24 13:29:33;;;;;;;6.10;3.60;;;;;;;;;;108288;1270;42063;-35
2023/07/24 13:32:09;;;;;;;5.60;3.40;;;;;;;;;;108115;1260;175378;-35
2023/07/24 13:34:44;;;;;;;5.60;3.40;;;;;;;;;;108349;1260;38892;-34
2023/07/24 13:37:19;;;;;;;5.40;3.30;;;;;;;;;;108284;1260;48024;-35
2023/07/24 13:39:53;;;;;;;5.90;3.60;;;;;;;;;;107581;1271;912185;-34
2023/07/24 13:42:26;;;;;;;5.60;3.30;;;;;;;;;;108206;1271;195100;-35
2023/07/24 13:45:00;;;;;;;6.30;3.30;;;;;;;;;;108195;1260;38991;-35
2023/07/24 13:47:33;;;;;;;5.60;3.20;;;;;;;;;;108263;1261;47815;-34
2023/07/24 13:50:09;;;;;;;5.50;3.30;;;;;;;;;;108157;1272;43180;-35
2023/07/24 13:52:42;;;;;;;6.20;3.60;;;;;;;;;;108268;1260;42641;-35
2023/07/24 13:55:16;;;;;;;5.40;3.30;;;;;;;;;;108211;1271;39371;-34
2023/07/24 13:57:50;;;;;;;5.60;3.20;;;;;;;;;;108211;1267;47057;-34
2023/07/24 14:00:23;;;;;;;6.00;3.30;;;;;;;;;;108261;1270;42614;-34
2023/07/24 14:02:57;;;;;;;6.30;3.10;;;;;;;;;;108267;1270;41455;-35
2023/07/24 14:05:31;;;;;;;5.60;3.20;;;;;;;;;;108286;1261;39994;-35
2023/07/24 14:08:07;;;;;;;6.60;3.10;;;;;;;;;;108077;1261;47130;-35
2023/07/24 14:10:41;;;;;;;5.50;3.00;;;;;;;;;;108291;1259;42058;-35
2023/07/24 14:13:14;;;;;;;5.30;3.00;;;;;;;;;;108293;1260;41213;-33
2023/07/24 14:15:48;;;;;;;5.60;2.90;;;;;;;;;;108203;1267;38779;-34
2023/07/24 14:18:22;;;;;;;5.00;2.70;;;;;;;;;;108225;1257;47593;-35
2023/07/24 14:20:56;;;;;;;5.20;2.70;;;;;;;;;;108272;1272;41900;-34
2023/07/24 14:23:30;;;;;;;5.10;2.70;;;;;;;;;;107638;1271;891942;-34
2023/07/24 14:26:04;;;;;;;5.20;2.60;;;;;;;;;;108202;1269;38815;-35
2023/07/24 14:28:37;;;;;;;5.10;2.70;;;;;;;;;;108290;1256;47940;-35
2023/07/24 14:31:10;;;;;;;5.10;2.80;;;;;;;;;;108272;1261;42503;-35
2023/07/24 14:33:44;;;;;;;5.10;2.80;;;;;;;;;;108152;1272;175369;-35
2023/07/24 14:36:17;;;;;;;6.30;2.60;;;;;;;;;;108342;1261;38944;-35
2023/07/24 14:38:51;;;;;;;5.00;2.50;;;;;;;;;;108247;1260;46518;-35
2023/07/24 14:41:24;;;;;;;5.50;2.90;;;;;;;;;;108254;1256;43129;-35
2023/07/24 14:43:58;;;;;;;4.90;2.90;;;;;;;;;;108340;1270;42768;-35
2023/07/24 14:46:32;;;;;;;5.20;2.80;;;;;;;;;;108243;1271;38899;-35
2023/07/24 14:49:05;;;;;;;5.10;2.60;;;;;;;;;;108250;1259;46428;-35
2023/07/24 14:51:40;;;;;;;5.40;2.90;;;;;;;;;;108215;1269;43597;-35
2023/07/24 14:54:13;;;;;;;4.90;2.70;;;;;;;;;;108325;1269;41467;-35
2023/07/24 14:56:46;;;;;;;5.40;3.00;;;;;;;;;;108253;1268;40031;-35
2023/07/24 14:59:31;;;;;;;5.60;2.90;;;;;;;;;;108283;1256;47944;-35
2023/07/24 15:02:06;;;;;;;5.50;3.00;;;;;;;;;;108185;1272;43368;-35
2023/07/24 15:04:40;;;;;;;5.90;3.10;;;;;;;;;;108284;1260;41078;-36
2023/07/24 15:07:13;;;;;;;5.70;3.20;;;;;;;;;;108259;1258;40169;-35
2023/07/24 15:09:47;;;;;;;6.30;2.90;;;;;;;;;;108165;1261;46233;-35
2023/07/24 15:12:21;;;;;;;5.60;3.20;;;;;;;;;;108252;1258;43583;-35
2023/07/24 15:14:55;;;;;;;5.10;3.10;;;;;;;;;;108291;1256;41311;-35